createdAt,value
2022-12-23T00:01:56.254Z,1.50
2022-12-23T00:04:24.170Z,1.10
2022-12-23T00:06:51.588Z,1.30
2022-12-23T00:09:19.054Z,1.30
2022-12-23T00:12:04.845Z,1.38
2022-12-23T00:14:51.137Z,1.30
2022-12-23T00:17:22.652Z,0.90
2022-12-23T00:19:50.661Z,0.93
2022-12-23T00:22:18.409Z,0.90
2022-12-23T00:24:46.030Z,1.20
2022-12-23T00:27:13.509Z,0.95
2022-12-23T00:29:40.925Z,1.08
2022-12-23T00:32:08.476Z,0.90
2022-12-23T00:34:36.182Z,1.00
2022-12-23T00:37:03.581Z,1.20
2022-12-23T00:39:54.760Z,1.27
2022-12-23T00:42:41.770Z,1.08
2022-12-23T00:45:15.746Z,1.00
2022-12-23T00:48:03.031Z,1.15
2022-12-23T00:50:31.333Z,1.20
2022-12-23T00:55:26.245Z,1.00
2022-12-23T00:57:53.705Z,1.17
2022-12-23T01:00:41.838Z,1.00
2022-12-23T01:03:32.586Z,1.20
2022-12-23T01:06:01.296Z,1.20
2022-12-23T01:08:29.076Z,1.25
2022-12-23T01:10:56.840Z,1.35
2022-12-23T01:13:24.351Z,1.52
2022-12-23T01:15:51.882Z,1.25
2022-12-23T01:18:19.292Z,1.10
2022-12-23T01:20:46.752Z,1.40
2022-12-23T01:23:14.142Z,1.25
2022-12-23T01:25:41.805Z,1.38
2022-12-23T01:28:09.240Z,1.50
2022-12-23T01:30:37.978Z,1.30
2022-12-23T01:33:05.624Z,1.50
2022-12-23T01:35:33.388Z,1.20
2022-12-23T01:38:00.784Z,1.17
2022-12-23T01:40:28.197Z,1.00
2022-12-23T01:42:55.963Z,1.08
2022-12-23T01:45:33.287Z,1.13
2022-12-23T01:48:12.954Z,1.02
2022-12-23T01:50:54.952Z,0.80
2022-12-23T01:53:38.581Z,0.73
2022-12-23T01:56:12.161Z,0.85
2022-12-23T01:58:44.517Z,0.90
2022-12-23T02:01:30.638Z,1.05
2022-12-23T02:04:02.620Z,1.10
2022-12-23T02:06:55.835Z,1.10
2022-12-23T02:09:25.392Z,0.88
2022-12-23T02:12:01.906Z,1.08
2022-12-23T02:15:25.470Z,0.95
2022-12-23T02:18:30.438Z,0.80
2022-12-23T02:21:06.622Z,0.80
2022-12-23T02:23:37.058Z,0.75
2022-12-23T02:26:10.439Z,0.82
2022-12-23T02:29:13.161Z,0.70
2022-12-23T02:31:59.061Z,0.88
2022-12-23T02:34:44.893Z,0.68
2022-12-23T02:37:15.097Z,0.75
2022-12-23T02:40:23.858Z,0.82
2022-12-23T02:43:06.498Z,0.70
2022-12-23T02:45:44.056Z,0.70
2022-12-23T02:48:21.142Z,0.95
2022-12-23T02:50:51.639Z,0.90
2022-12-23T02:53:29.487Z,0.60
2022-12-23T02:55:59.098Z,0.80
2022-12-23T02:58:36.108Z,0.60
2022-12-23T03:01:07.075Z,0.70
2022-12-23T03:03:36.681Z,0.70
2022-12-23T03:06:19.470Z,0.80
2022-12-23T03:08:48.783Z,0.70
2022-12-23T03:11:17.886Z,0.60
2022-12-23T03:14:10.965Z,0.60
2022-12-23T03:17:10.608Z,0.77
2022-12-23T03:19:53.215Z,0.65
2022-12-23T03:22:39.078Z,0.75
2022-12-23T03:25:28.753Z,0.60
2022-12-23T03:28:15.448Z,0.90
2022-12-23T03:30:47.835Z,0.80
2022-12-23T03:33:20.571Z,0.60
2022-12-23T03:35:55.936Z,0.85
2022-12-23T03:38:24.603Z,0.57
2022-12-23T03:40:57.110Z,1.00
2022-12-23T03:43:33.449Z,0.80
2022-12-23T03:46:06.598Z,0.90
2022-12-23T03:48:38.678Z,1.08
2022-12-23T03:51:14.456Z,0.80
2022-12-23T03:53:55.501Z,1.08
2022-12-23T03:56:34.389Z,1.08
2022-12-23T03:59:11.792Z,1.00
2022-12-23T04:02:08.235Z,1.30
2022-12-23T04:04:48.001Z,1.13
2022-12-23T04:07:31.467Z,1.23
2022-12-23T04:09:59.808Z,1.27
2022-12-23T04:12:28.136Z,0.95
2022-12-23T04:17:23.161Z,0.90
2022-12-23T04:19:51.426Z,0.95
2022-12-23T04:22:18.907Z,0.90
2022-12-23T04:24:46.614Z,0.85
2022-12-23T04:27:15.867Z,0.77
2022-12-23T04:29:43.765Z,0.70
2022-12-23T04:32:11.436Z,0.50
2022-12-23T04:34:39.286Z,0.60
2022-12-23T04:37:06.717Z,0.52
2022-12-23T04:39:34.148Z,0.50
2022-12-23T04:42:01.568Z,0.60
2022-12-23T04:44:29.119Z,0.47
2022-12-23T04:46:56.652Z,0.55
2022-12-23T04:49:24.229Z,0.50
2022-12-23T04:51:51.718Z,0.60
2022-12-23T04:54:19.408Z,0.30
2022-12-23T04:56:46.829Z,0.45
2022-12-23T04:59:14.469Z,0.45
2022-12-23T05:01:44.827Z,0.30
2022-12-23T05:04:13.255Z,0.43
2022-12-23T05:06:40.760Z,0.40
2022-12-23T05:09:08.378Z,0.30
2022-12-23T05:11:41.877Z,0.40
2022-12-23T05:14:11.201Z,0.40
2022-12-23T05:16:39.160Z,0.30
2022-12-23T05:19:06.668Z,0.30
2022-12-23T05:21:34.239Z,0.30
2022-12-23T05:24:01.771Z,0.40
2022-12-23T05:26:29.324Z,0.40
2022-12-23T05:28:56.699Z,0.30
2022-12-23T05:31:24.183Z,0.50
2022-12-23T05:33:51.936Z,0.45
2022-12-23T05:36:19.570Z,0.50
2022-12-23T05:38:47.928Z,0.40
2022-12-23T05:41:16.800Z,0.40
2022-12-23T05:43:44.534Z,0.50
2022-12-23T05:46:11.917Z,0.52
2022-12-23T05:48:39.397Z,0.50
2022-12-23T05:51:06.893Z,0.40
2022-12-23T05:53:34.389Z,0.60
2022-12-23T05:56:06.113Z,0.70
2022-12-23T05:58:34.040Z,0.60
2022-12-23T06:01:03.112Z,2.17
2022-12-23T06:03:31.167Z,2.08
2022-12-23T06:08:26.022Z,1.42
2022-12-23T06:10:53.971Z,1.20
2022-12-23T06:13:21.380Z,0.60
2022-12-23T06:15:49.136Z,0.90
2022-12-23T06:18:16.861Z,0.90
2022-12-23T06:20:48.151Z,0.90
2022-12-23T06:23:15.859Z,1.00
2022-12-23T06:25:43.534Z,1.40
2022-12-23T06:28:10.929Z,1.50
2022-12-23T06:30:38.371Z,1.55
2022-12-23T06:33:05.895Z,2.10
2022-12-23T06:35:33.375Z,1.90
2022-12-23T06:38:00.944Z,2.03
2022-12-23T06:40:29.234Z,2.13
2022-12-23T06:42:57.233Z,2.60
2022-12-23T06:45:24.730Z,2.50
2022-12-23T06:47:52.129Z,2.50
2022-12-23T06:50:20.579Z,2.55
2022-12-23T06:52:48.999Z,2.67
2022-12-23T06:55:16.752Z,3.20
2022-12-23T06:57:44.949Z,3.25
2022-12-23T07:02:40.250Z,2.53
2022-12-23T07:05:08.484Z,2.80
2022-12-23T07:10:03.621Z,2.47
2022-12-23T07:12:31.249Z,2.45
2022-12-23T07:14:58.837Z,3.08
2022-12-23T07:17:26.280Z,2.70
2022-12-23T07:19:53.677Z,2.83
2022-12-23T07:22:21.283Z,2.95
2022-12-23T07:24:49.026Z,3.45
2022-12-23T07:27:16.698Z,3.70
2022-12-23T07:29:44.198Z,3.10
2022-12-23T07:32:11.715Z,3.40
2022-12-23T07:34:39.476Z,3.53
2022-12-23T07:37:06.923Z,2.90
2022-12-23T07:39:34.900Z,3.70
2022-12-23T07:42:42.874Z,2.90
2022-12-23T07:44:49.856Z,3.38
2022-12-23T07:47:17.341Z,3.40
2022-12-23T07:49:44.853Z,3.33
2022-12-23T07:52:12.425Z,3.30
2022-12-23T07:54:39.858Z,3.63
2022-12-23T07:57:07.307Z,3.65
2022-12-23T07:59:34.719Z,4.05
2022-12-23T08:02:02.401Z,4.17
2022-12-23T08:04:30.358Z,3.95
2022-12-23T08:06:57.788Z,5.22
2022-12-23T08:09:25.268Z,4.30
2022-12-23T08:11:52.854Z,4.47
2022-12-23T08:14:20.254Z,5.15
2022-12-23T08:16:48.424Z,5.50
2022-12-23T08:21:43.187Z,4.70
2022-12-23T08:24:10.630Z,4.57
2022-12-23T08:26:38.106Z,4.95
2022-12-23T08:29:05.521Z,5.13
2022-12-23T08:31:33.055Z,5.95
2022-12-23T08:34:01.674Z,5.35
2022-12-23T08:36:32.010Z,6.57
2022-12-23T08:39:03.551Z,5.28
2022-12-23T08:41:33.772Z,4.60
2022-12-23T08:44:01.649Z,4.82
2022-12-23T08:48:57.267Z,4.00
2022-12-23T08:51:26.284Z,4.78
2022-12-23T08:54:01.101Z,3.83
2022-12-23T08:56:34.522Z,4.40
2022-12-23T08:59:02.667Z,4.88
2022-12-23T09:01:32.545Z,4.22
2022-12-23T09:04:07.104Z,3.13
2022-12-23T09:06:38.707Z,4.30
2022-12-23T09:09:07.361Z,3.92
2022-12-23T09:11:35.743Z,3.70
2022-12-23T09:14:03.879Z,2.97
2022-12-23T09:18:58.996Z,3.00
2022-12-23T09:21:26.584Z,3.58
2022-12-23T09:23:54.162Z,2.85
2022-12-23T09:26:27.817Z,2.95
2022-12-23T09:28:56.475Z,4.40
2022-12-23T09:31:27.868Z,2.70
2022-12-23T09:33:59.864Z,1.63
2022-12-23T09:36:27.293Z,1.60
2022-12-23T09:38:59.153Z,1.30
2022-12-23T09:41:39.564Z,0.95
2022-12-23T09:44:19.052Z,0.90
2022-12-23T09:46:58.451Z,0.73
2022-12-23T09:49:26.142Z,0.70
2022-12-23T09:52:00.222Z,0.50
2022-12-23T09:54:41.544Z,0.55
2022-12-23T09:57:31.826Z,0.70
2022-12-23T10:00:12.979Z,0.70
2022-12-23T10:03:01.365Z,1.23
2022-12-23T10:05:50.869Z,1.73
2022-12-23T10:08:35.759Z,2.47
2022-12-23T10:11:47.009Z,2.00
2022-12-23T10:14:31.902Z,2.92
2022-12-23T10:17:05.064Z,4.20
2022-12-23T10:19:41.714Z,3.70
2022-12-23T10:22:24.992Z,1.60
2022-12-23T10:24:55.176Z,2.50
2022-12-23T10:27:42.642Z,2.67
2022-12-23T10:33:29.689Z,2.78
2022-12-23T10:36:16.594Z,2.90
2022-12-23T10:39:12.045Z,2.90
2022-12-23T10:41:48.984Z,3.25
2022-12-23T10:44:34.995Z,3.22
2022-12-23T10:47:14.727Z,3.78
2022-12-23T10:50:00.199Z,3.63
2022-12-23T10:52:34.482Z,3.55
2022-12-23T10:55:01.948Z,3.22
2022-12-23T10:57:30.128Z,3.83
2022-12-23T10:59:57.953Z,3.63
2022-12-23T11:02:39.055Z,3.55
2022-12-23T11:05:28.275Z,3.83
2022-12-23T11:07:55.922Z,3.95
2022-12-23T11:10:28.484Z,4.72
2022-12-23T11:12:55.930Z,5.13
2022-12-23T11:15:40.964Z,4.45
2022-12-23T11:18:11.614Z,4.45
2022-12-23T11:20:41.640Z,5.28
2022-12-23T11:23:24.232Z,4.80
2022-12-23T11:26:04.162Z,4.60
2022-12-23T11:28:34.110Z,5.50
2022-12-23T11:31:09.706Z,6.00
2022-12-23T11:33:55.711Z,5.68
2022-12-23T11:36:25.560Z,3.10
2022-12-23T11:38:58.983Z,3.08
2022-12-23T11:41:34.693Z,2.75
2022-12-23T11:44:10.128Z,1.90
2022-12-23T11:46:37.659Z,2.00
2022-12-23T11:49:17.356Z,2.38
2022-12-23T11:51:47.276Z,1.98
2022-12-23T11:54:18.183Z,1.50
2022-12-23T11:56:50.641Z,1.73
2022-12-23T11:59:32.802Z,8.15
2022-12-23T12:02:03.621Z,3.17
2022-12-23T12:04:34.654Z,2.38
2022-12-23T12:07:04.949Z,2.10
2022-12-23T12:09:34.059Z,2.30
2022-12-23T12:12:06.618Z,2.00
2022-12-23T12:14:52.860Z,2.08
2022-12-23T12:17:40.849Z,2.10
2022-12-23T12:22:47.644Z,1.98
2022-12-23T12:25:20.174Z,1.88
2022-12-23T12:28:11.371Z,1.90
2022-12-23T12:30:50.182Z,2.35
2022-12-23T12:33:33.821Z,1.88
2022-12-23T12:36:32.171Z,2.33
2022-12-23T12:39:00.280Z,3.00
2022-12-23T12:41:32.362Z,2.13
2022-12-23T12:44:02.931Z,2.60
2022-12-23T12:46:44.896Z,2.75
2022-12-23T12:49:38.364Z,2.22
2022-12-23T12:52:13.191Z,1.98
2022-12-23T12:55:02.455Z,2.40
2022-12-23T12:57:32.205Z,2.05
2022-12-23T13:00:06.204Z,2.30
2022-12-23T13:02:56.206Z,2.40
2022-12-23T13:05:55.750Z,2.47
2022-12-23T13:09:04.692Z,2.00
2022-12-23T13:11:51.069Z,1.77
2022-12-23T13:14:43.238Z,2.00
2022-12-23T13:17:28.825Z,2.10
2022-12-23T13:20:21.276Z,2.60
2022-12-23T13:22:53.499Z,2.45
2022-12-23T13:25:49.572Z,2.03
2022-12-23T13:28:30.509Z,2.20
2022-12-23T13:31:27.989Z,2.50
2022-12-23T13:34:08.844Z,1.77
2022-12-23T13:36:50.861Z,3.50
2022-12-23T13:39:45.639Z,2.17
2022-12-23T13:42:32.203Z,2.55
2022-12-23T13:45:01.137Z,2.60
2022-12-23T13:48:08.485Z,1.98
2022-12-23T13:50:55.208Z,2.20
2022-12-23T13:53:34.137Z,2.53
2022-12-23T13:56:40.506Z,2.05
2022-12-23T13:59:11.351Z,2.22
2022-12-23T14:01:42.060Z,2.58
2022-12-23T14:04:35.012Z,2.25
2022-12-23T14:07:23.057Z,2.90
2022-12-23T14:09:57.013Z,2.88
2022-12-23T14:12:34.163Z,2.38
2022-12-23T14:15:26.055Z,2.63
2022-12-23T14:18:21.931Z,2.28
2022-12-23T14:21:22.663Z,2.28
2022-12-23T14:24:04.751Z,2.47
2022-12-23T14:26:47.572Z,2.10
2022-12-23T14:29:35.926Z,2.83
2022-12-23T14:32:03.511Z,2.22
2022-12-23T14:34:33.352Z,2.60
2022-12-23T14:37:25.729Z,2.40
2022-12-23T14:39:53.986Z,2.38
2022-12-23T14:42:42.333Z,2.38
2022-12-23T14:45:33.693Z,2.67
2022-12-23T14:48:03.737Z,2.72
2022-12-23T14:50:55.109Z,3.00
2022-12-23T14:53:25.325Z,3.17
2022-12-23T14:56:19.842Z,2.92
2022-12-23T14:58:54.011Z,2.78
2022-12-23T15:01:42.477Z,3.33
2022-12-23T15:04:31.520Z,3.88
2022-12-23T15:07:24.460Z,3.92
2022-12-23T15:10:01.944Z,3.80
2022-12-23T15:12:40.002Z,3.75
2022-12-23T15:17:48.172Z,4.10
2022-12-23T15:20:21.118Z,4.88
2022-12-23T15:22:49.516Z,4.43
2022-12-23T15:25:25.087Z,4.90
2022-12-23T15:28:00.967Z,5.10
2022-12-23T15:30:46.131Z,3.40
2022-12-23T15:33:51.878Z,3.50
2022-12-23T15:36:09.827Z,3.67
2022-12-23T15:38:39.010Z,3.60
2022-12-23T15:41:15.086Z,2.80
2022-12-23T15:43:43.461Z,3.58
2022-12-23T15:46:29.065Z,2.97
2022-12-23T15:48:58.519Z,2.88
2022-12-23T15:54:22.109Z,3.35
2022-12-23T15:56:51.940Z,4.28
2022-12-23T15:59:34.128Z,3.13
2022-12-23T16:05:32.186Z,2.63
2022-12-23T16:08:19.338Z,3.05
2022-12-23T16:11:14.892Z,3.47
2022-12-23T16:14:01.421Z,3.03
2022-12-23T16:16:38.326Z,2.85
2022-12-23T16:19:07.111Z,2.67
2022-12-23T16:21:36.483Z,2.92
2022-12-23T16:24:09.493Z,2.70
2022-12-23T16:26:42.281Z,3.00
2022-12-23T16:29:11.494Z,2.50
2022-12-23T16:31:42.805Z,2.47
2022-12-23T16:34:13.771Z,2.08
2022-12-23T16:36:41.257Z,2.67
2022-12-23T16:39:23.007Z,2.40
2022-12-23T16:41:51.001Z,2.15
2022-12-23T16:44:18.625Z,2.72
2022-12-23T16:46:49.737Z,3.30
2022-12-23T16:49:22.446Z,3.22
2022-12-23T16:51:53.535Z,3.40
2022-12-23T16:54:21.193Z,3.15
2022-12-23T16:56:49.898Z,5.57
2022-12-23T16:59:17.392Z,3.22
2022-12-23T17:01:47.047Z,2.75
2022-12-23T17:04:15.232Z,3.35
2022-12-23T17:06:42.792Z,2.33
2022-12-23T17:09:11.261Z,2.45
2022-12-23T17:11:49.476Z,3.10
2022-12-23T17:14:19.830Z,2.50
2022-12-23T17:16:47.947Z,2.70
2022-12-23T17:19:19.164Z,3.20
2022-12-23T17:21:55.866Z,2.95
2022-12-23T17:24:26.089Z,3.70
2022-12-23T17:26:54.779Z,3.60
2022-12-23T17:29:22.372Z,3.60
2022-12-23T17:31:50.974Z,3.60
2022-12-23T17:34:21.327Z,3.45
2022-12-23T17:36:50.831Z,3.40
2022-12-23T17:39:19.662Z,3.33
2022-12-23T17:44:16.287Z,3.97
2022-12-23T17:46:45.758Z,4.03
2022-12-23T17:49:13.778Z,3.97
2022-12-23T17:51:42.099Z,4.22
2022-12-23T17:54:22.941Z,3.70
2022-12-23T17:56:51.004Z,4.20
2022-12-23T17:59:18.440Z,4.45
2022-12-23T18:01:45.960Z,4.22
2022-12-23T18:04:13.621Z,4.70
2022-12-23T18:06:41.099Z,5.05
2022-12-23T18:09:08.561Z,4.80
2022-12-23T18:11:43.992Z,4.20
2022-12-23T18:14:17.746Z,4.95
2022-12-23T18:16:46.253Z,4.22
2022-12-23T18:19:19.371Z,4.70
2022-12-23T18:21:47.440Z,4.93
2022-12-23T18:24:15.202Z,4.60
2022-12-23T18:26:43.223Z,5.05
2022-12-23T18:29:10.824Z,4.53
2022-12-23T18:31:50.200Z,5.10
2022-12-23T18:34:20.364Z,4.30
2022-12-23T18:36:48.775Z,5.13
2022-12-23T18:39:16.327Z,4.68
2022-12-23T18:41:43.838Z,4.95
2022-12-23T18:44:20.224Z,5.30
2022-12-23T18:46:48.947Z,4.65
2022-12-23T18:49:16.735Z,4.78
2022-12-23T18:51:44.129Z,5.05
2022-12-23T18:54:15.589Z,4.28
2022-12-23T18:56:43.486Z,4.55
2022-12-23T18:59:25.712Z,4.45
2022-12-23T19:01:57.637Z,4.35
2022-12-23T19:04:28.650Z,4.00
2022-12-23T19:06:57.104Z,4.65
2022-12-23T19:09:25.707Z,4.82
2022-12-23T19:11:54.318Z,4.50
2022-12-23T19:14:22.261Z,4.90
2022-12-23T19:16:52.280Z,4.88
2022-12-23T19:19:21.584Z,5.20
2022-12-23T19:21:49.083Z,5.45
2022-12-23T19:24:16.692Z,5.38
2022-12-23T19:26:44.251Z,6.00
2022-12-23T19:29:11.697Z,5.65
2022-12-23T19:31:40.083Z,5.85
2022-12-23T19:34:12.886Z,5.45
2022-12-23T19:36:42.626Z,5.50
2022-12-23T19:39:16.167Z,6.38
2022-12-23T19:41:45.088Z,6.07
2022-12-23T19:44:12.577Z,5.85
2022-12-23T19:46:40.032Z,6.43
2022-12-23T19:49:07.485Z,5.80
2022-12-23T19:51:34.990Z,6.88
2022-12-23T19:54:03.021Z,6.32
2022-12-23T19:56:32.376Z,6.10
2022-12-23T19:58:59.783Z,6.78
2022-12-23T20:01:27.771Z,5.40
2022-12-23T20:03:56.543Z,6.32
2022-12-23T20:06:28.341Z,5.43
2022-12-23T20:09:01.011Z,5.80
2022-12-23T20:11:30.737Z,6.22
2022-12-23T20:13:59.945Z,6.60
2022-12-23T20:16:28.590Z,6.43
2022-12-23T20:18:57.757Z,6.50
2022-12-23T20:21:25.255Z,7.22
2022-12-23T20:23:53.058Z,6.50
2022-12-23T20:26:20.877Z,7.07
2022-12-23T20:28:48.284Z,7.53
2022-12-23T20:31:19.473Z,8.82
2022-12-23T20:33:47.928Z,7.38
2022-12-23T20:36:18.143Z,7.72
2022-12-23T20:38:46.897Z,7.85
2022-12-23T20:41:16.635Z,7.30
2022-12-23T20:43:48.870Z,7.78
2022-12-23T20:46:30.645Z,7.75
2022-12-23T20:48:58.307Z,7.80
2022-12-23T20:51:26.265Z,7.05
2022-12-23T20:53:56.154Z,8.23
2022-12-23T20:56:27.517Z,8.23
2022-12-23T20:58:55.295Z,7.68
2022-12-23T21:01:28.254Z,7.70
2022-12-23T21:03:57.002Z,8.40
2022-12-23T21:06:25.608Z,7.38
2022-12-23T21:08:55.697Z,8.18
2022-12-23T21:11:23.435Z,7.28
2022-12-23T21:13:51.386Z,6.68
2022-12-23T21:16:19.140Z,7.63
2022-12-23T21:18:52.592Z,5.88
2022-12-23T21:21:23.555Z,7.15
2022-12-23T21:23:51.031Z,6.15
2022-12-23T21:26:24.513Z,6.60
2022-12-23T21:28:53.714Z,6.38
2022-12-23T21:31:23.361Z,6.68
2022-12-23T21:33:52.012Z,6.13
2022-12-23T21:36:22.452Z,6.60
2022-12-23T21:38:50.330Z,6.40
2022-12-23T21:41:23.877Z,5.47
2022-12-23T21:43:51.609Z,6.78
2022-12-23T21:46:21.997Z,5.78
2022-12-23T21:48:50.427Z,5.55
2022-12-23T21:51:36.692Z,6.20
2022-12-23T21:54:07.407Z,5.95
2022-12-23T21:59:05.339Z,6.40
2022-12-23T22:01:33.183Z,5.85
2022-12-23T22:04:00.755Z,6.45
2022-12-23T22:06:35.833Z,5.90
2022-12-23T22:09:04.926Z,5.15
2022-12-23T22:11:35.246Z,6.15
2022-12-23T22:14:04.547Z,5.65
2022-12-23T22:16:33.246Z,6.68
2022-12-23T22:19:01.913Z,6.25
2022-12-23T22:21:32.155Z,6.30
2022-12-23T22:24:00.305Z,6.88
2022-12-23T22:28:58.172Z,6.53
2022-12-23T22:31:46.770Z,6.75
2022-12-23T22:34:22.325Z,6.13
2022-12-23T22:36:50.401Z,6.38
2022-12-23T22:41:50.587Z,6.18
2022-12-23T22:44:18.503Z,6.55
2022-12-23T22:46:46.169Z,6.40
2022-12-23T22:49:14.899Z,6.68
2022-12-23T22:51:43.399Z,7.05
2022-12-23T22:54:10.967Z,7.45
2022-12-23T22:56:38.399Z,6.63
2022-12-23T22:59:05.872Z,6.85
2022-12-23T23:01:35.965Z,6.85
2022-12-23T23:04:04.438Z,6.55
2022-12-23T23:06:34.589Z,6.43
2022-12-23T23:09:02.287Z,7.30
2022-12-23T23:11:29.886Z,6.82
2022-12-23T23:13:57.959Z,7.53
2022-12-23T23:16:26.241Z,7.38
2022-12-23T23:18:54.226Z,6.97
2022-12-23T23:21:22.339Z,6.43
2022-12-23T23:26:19.151Z,6.60
2022-12-23T23:28:47.688Z,7.80
2022-12-23T23:34:02.949Z,6.68
2022-12-23T23:36:30.438Z,7.40
2022-12-23T23:38:57.984Z,7.00
2022-12-23T23:41:25.400Z,7.05
2022-12-23T23:43:52.837Z,7.38
2022-12-23T23:46:20.334Z,6.45
2022-12-23T23:48:48.192Z,7.05
2022-12-23T23:51:15.669Z,6.25
2022-12-23T23:53:43.104Z,8.57
2022-12-23T23:56:10.634Z,7.47
2022-12-23T23:58:38.170Z,6.78
